Time;durP1;ratioP1;P1;durP2;ratioP2;P2;SDS_P1;SDS_P2;PMS_P1;PMS_P2;Temp;Humidity;BMP_temperature;BMP_pressure;BME280_temperature;BME280_humidity;BME280_pressure;Samples;Min_cycle;Max_cycle;Signal;HPM_P1;HPM_P2
2023/05/09 00:00:19;;;;;;;10.20;4.60;;;13.40;99.90;;;;;;5073577;28;20849;-86
2023/05/09 00:02:46;;;;;;;6.10;3.20;;;13.40;99.90;;;;;;5073115;28;20851;-86
2023/05/09 00:05:13;;;;;;;4.43;3.33;;;13.50;99.90;;;;;;5073292;28;20506;-86
2023/05/09 00:07:41;;;;;;;7.63;5.13;;;13.50;99.90;;;;;;5073062;28;20511;-86
2023/05/09 00:10:09;;;;;;;7.90;4.30;;;13.40;99.90;;;;;;5073048;28;20456;-86
2023/05/09 00:12:36;;;;;;;7.13;3.73;;;13.50;99.90;;;;;;5073243;28;20504;-86
2023/05/09 00:15:03;;;;;;;8.20;4.30;;;13.50;99.90;;;;;;5073595;28;20780;-86
2023/05/09 00:17:30;;;;;;;4.67;3.13;;;13.50;99.90;;;;;;5073037;28;20944;-86
2023/05/09 00:20:00;;;;;;;9.07;4.47;;;13.70;99.90;;;;;;5073340;28;20445;-86
2023/05/09 00:22:27;;;;;;;8.00;4.67;;;13.60;99.90;;;;;;5073444;28;20476;-87
2023/05/09 00:24:55;;;;;;;12.13;3.73;;;13.60;99.90;;;;;;5073301;28;20464;-87
2023/05/09 00:27:22;;;;;;;13.60;4.73;;;13.60;99.90;;;;;;5073269;28;20476;-87
2023/05/09 00:29:48;;;;;;;6.93;3.70;;;13.60;99.90;;;;;;5077050;28;20449;-87
2023/05/09 00:32:15;;;;;;;9.90;4.30;;;13.60;99.90;;;;;;5077102;28;20508;-86
2023/05/09 00:34:42;;;;;;;8.37;4.30;;;13.60;99.90;;;;;;5077132;28;20456;-86
2023/05/09 00:37:09;;;;;;;10.20;4.63;;;13.60;99.90;;;;;;5076824;28;20445;-86
2023/05/09 00:39:35;;;;;;;9.23;4.00;;;13.60;99.90;;;;;;5077053;28;20983;-87
2023/05/09 00:42:03;;;;;;;11.00;5.10;;;13.60;99.90;;;;;;5076906;28;20469;-87
2023/05/09 00:44:30;;;;;;;9.60;5.57;;;13.60;99.90;;;;;;5077331;28;20445;-86
2023/05/09 00:46:57;;;;;;;6.23;3.60;;;13.60;99.90;;;;;;5077046;28;20445;-87
2023/05/09 00:49:24;;;;;;;12.20;5.53;;;13.70;99.90;;;;;;5077070;28;20456;-86
2023/05/09 00:51:52;;;;;;;11.30;3.93;;;13.60;99.90;;;;;;5076364;28;20484;-87
2023/05/09 00:54:19;;;;;;;7.87;4.87;;;13.70;99.90;;;;;;5077104;28;20460;-87
2023/05/09 00:56:46;;;;;;;7.17;3.33;;;13.70;99.90;;;;;;5076577;28;20438;-87
2023/05/09 00:59:14;;;;;;;9.20;4.23;;;13.80;99.90;;;;;;5076490;28;20440;-87
2023/05/09 01:01:41;;;;;;;9.03;4.53;;;13.80;99.90;;;;;;5076402;28;20481;-87
2023/05/09 01:04:07;;;;;;;8.63;4.43;;;13.70;99.90;;;;;;5076668;28;20449;-87
2023/05/09 01:06:40;;;;;;;13.23;5.20;;;13.80;99.90;;;;;;5076643;28;20532;-87
2023/05/09 01:09:19;;;;;;;7.33;4.67;;;13.80;99.90;;;;;;5076594;28;20851;-87
2023/05/09 01:11:51;;;;;;;8.40;4.27;;;13.80;99.90;;;;;;5076366;28;20420;-87
2023/05/09 01:14:33;;;;;;;8.13;3.87;;;13.80;99.90;;;;;;5076677;28;20429;-87
2023/05/09 01:17:05;;;;;;;8.03;3.73;;;13.70;99.90;;;;;;5076585;28;20428;-87
2023/05/09 01:19:50;;;;;;;6.40;3.50;;;13.70;99.90;;;;;;5076433;28;20434;-87
2023/05/09 01:22:19;;;;;;;10.00;4.30;;;13.70;99.90;;;;;;5076318;28;20531;-87
2023/05/09 01:25:06;;;;;;;10.30;4.20;;;13.70;99.90;;;;;;5076738;28;20445;-87
2023/05/09 01:27:44;;;;;;;7.80;4.00;;;13.60;99.90;;;;;;5076056;28;20422;-87
2023/05/09 01:30:13;;;;;;;7.90;4.33;;;13.60;99.90;;;;;;5076308;28;20429;-87
2023/05/09 01:32:42;;;;;;;8.10;3.70;;;13.70;99.90;;;;;;5079096;28;20485;-87
2023/05/09 01:35:12;;;;;;;6.20;4.13;;;13.60;99.90;;;;;;5076053;28;20446;-87
2023/05/09 01:37:43;;;;;;;8.80;4.87;;;13.60;99.90;;;;;;5075998;28;20529;-88
2023/05/09 01:40:15;;;;;;;7.00;4.00;;;13.60;99.90;;;;;;5075504;28;20503;-87
2023/05/09 01:42:45;;;;;;;7.77;4.73;;;13.60;99.90;;;;;;5075616;28;20461;-87
2023/05/09 01:45:15;;;;;;;9.47;4.10;;;13.60;99.90;;;;;;5075986;28;20441;-87
2023/05/09 01:47:42;;;;;;;5.50;3.30;;;13.50;99.90;;;;;;5076718;28;20491;-87
2023/05/09 01:50:11;;;;;;;4.30;2.83;;;13.40;99.90;;;;;;5075842;28;20452;-87
2023/05/09 01:52:40;;;;;;;7.83;3.33;;;13.40;99.90;;;;;;5075782;28;20485;-87
2023/05/09 01:55:08;;;;;;;8.97;3.60;;;13.40;99.90;;;;;;5076000;28;20452;-87
2023/05/09 01:57:36;;;;;;;6.10;2.90;;;13.30;99.90;;;;;;5075737;28;20483;-87
2023/05/09 02:00:06;;;;;;;6.23;4.17;;;13.30;99.90;;;;;;5075809;28;20815;-87
2023/05/09 02:02:35;;;;;;;5.10;2.70;;;13.30;99.90;;;;;;5075174;28;20504;-87
2023/05/09 02:05:03;;;;;;;5.83;3.53;;;13.30;99.90;;;;;;5075667;28;20453;-87
2023/05/09 02:07:30;;;;;;;7.20;4.37;;;13.30;99.90;;;;;;5075333;28;20488;-87
2023/05/09 02:09:58;;;;;;;10.43;3.87;;;13.30;99.90;;;;;;5075505;28;20936;-87
2023/05/09 02:12:26;;;;;;;7.83;3.60;;;13.30;99.90;;;;;;5075318;28;20484;-87
2023/05/09 02:14:52;;;;;;;7.23;4.07;;;13.30;99.90;;;;;;5075174;28;20448;-87
2023/05/09 02:17:20;;;;;;;6.80;3.47;;;13.30;99.90;;;;;;5075453;28;20449;-87
2023/05/09 02:19:48;;;;;;;9.57;3.13;;;13.30;99.90;;;;;;5075362;28;20449;-87
2023/05/09 02:22:15;;;;;;;7.10;3.67;;;13.40;99.90;;;;;;5074890;28;20487;-87
2023/05/09 02:24:43;;;;;;;11.17;4.30;;;13.30;99.90;;;;;;5075676;28;20921;-87
2023/05/09 02:27:11;;;;;;;3.70;2.77;;;13.30;99.90;;;;;;5075156;28;20461;-87
2023/05/09 02:29:42;;;;;;;6.20;2.93;;;13.30;99.90;;;;;;5074762;28;20444;-86
2023/05/09 02:32:13;;;;;;;11.47;3.77;;;13.30;99.90;;;;;;5074969;28;20471;-86
2023/05/09 02:34:41;;;;;;;5.07;2.53;;;13.30;99.90;;;;;;5074982;28;20839;-87
2023/05/09 02:37:10;;;;;;;8.00;4.27;;;13.20;99.90;;;;;;5074877;28;20445;-86
2023/05/09 02:39:37;;;;;;;9.30;4.33;;;13.20;99.90;;;;;;5074576;28;20945;-87
2023/05/09 02:42:09;;;;;;;9.57;3.43;;;13.20;99.90;;;;;;5074717;28;20478;-87
2023/05/09 02:44:37;;;;;;;7.57;3.70;;;13.20;99.90;;;;;;5074691;28;20422;-87
2023/05/09 02:47:05;;;;;;;6.20;2.93;;;13.20;99.90;;;;;;5074691;28;20537;-87
2023/05/09 02:49:32;;;;;;;3.33;3.00;;;13.30;99.90;;;;;;5074352;28;20949;-87
2023/05/09 02:51:58;;;;;;;6.37;3.50;;;13.30;99.90;;;;;;5073246;28;20993;-87
2023/05/09 02:54:26;;;;;;;6.43;3.43;;;13.30;99.90;;;;;;5074506;28;20481;-87
2023/05/09 02:56:53;;;;;;;6.33;2.87;;;13.10;99.90;;;;;;5074739;28;20460;-87
2023/05/09 02:59:20;;;;;;;8.70;4.13;;;13.10;99.90;;;;;;5074163;28;20453;-87
2023/05/09 03:01:47;;;;;;;7.23;3.30;;;13.10;99.90;;;;;;5074449;28;20480;-86
2023/05/09 03:04:13;;;;;;;8.33;3.20;;;13.10;99.90;;;;;;5074285;28;20441;-87
2023/05/09 03:06:40;;;;;;;5.70;2.93;;;13.10;99.90;;;;;;5074348;28;20934;-87
2023/05/09 03:09:07;;;;;;;6.90;3.53;;;13.10;99.90;;;;;;5074227;28;21005;-87
2023/05/09 03:11:36;;;;;;;5.13;2.97;;;13.10;99.90;;;;;;5074186;28;20453;-86
2023/05/09 03:14:03;;;;;;;6.13;3.00;;;13.10;99.90;;;;;;5073816;28;21011;-87
2023/05/09 03:16:29;;;;;;;7.03;3.20;;;13.20;99.90;;;;;;5074198;28;20461;-87
2023/05/09 03:18:56;;;;;;;6.10;2.30;;;13.20;99.90;;;;;;5073920;28;20433;-87
2023/05/09 03:21:23;;;;;;;5.13;3.10;;;13.20;99.90;;;;;;5074102;28;20449;-87
2023/05/09 03:23:50;;;;;;;5.90;2.73;;;13.10;99.90;;;;;;5074025;28;20466;-87
2023/05/09 03:26:16;;;;;;;6.77;3.00;;;13.20;99.90;;;;;;5073953;28;20441;-87
2023/05/09 03:28:46;;;;;;;4.80;2.00;;;13.20;99.90;;;;;;5074116;28;20449;-87
2023/05/09 03:31:12;;;;;;;3.40;2.50;;;13.10;99.90;;;;;;5074041;28;20832;-88
2023/05/09 03:33:39;;;;;;;4.13;1.57;;;13.10;99.90;;;;;;5073914;28;20482;-87
2023/05/09 03:36:06;;;;;;;5.80;2.40;;;13.20;99.90;;;;;;5074044;28;20450;-87
2023/05/09 03:38:33;;;;;;;2.53;2.13;;;13.10;99.90;;;;;;5073970;28;20440;-87
2023/05/09 03:41:00;;;;;;;5.97;2.50;;;13.20;99.90;;;;;;5074265;28;20430;-86
2023/05/09 03:43:26;;;;;;;3.70;1.57;;;13.20;99.90;;;;;;5074697;28;20461;-86
2023/05/09 03:45:54;;;;;;;3.30;2.17;;;13.30;99.90;;;;;;5076429;28;20449;-87
2023/05/09 03:48:21;;;;;;;3.30;2.10;;;13.20;99.90;;;;;;5073895;28;20456;-87
2023/05/09 03:50:48;;;;;;;2.33;1.47;;;13.30;99.90;;;;;;5073557;28;20434;-87
2023/05/09 03:53:15;;;;;;;3.23;1.70;;;13.30;99.90;;;;;;5073595;28;20488;-87
2023/05/09 03:55:41;;;;;;;2.90;1.77;;;13.30;99.90;;;;;;5073651;28;20445;-87
2023/05/09 03:58:08;;;;;;;2.60;1.70;;;13.30;99.90;;;;;;5073722;28;20456;-87
2023/05/09 04:00:35;;;;;;;3.50;1.97;;;13.30;99.90;;;;;;5073725;28;20452;-87
2023/05/09 04:03:04;;;;;;;8.50;2.47;;;13.30;99.90;;;;;;5073253;28;20839;-87
2023/05/09 04:05:32;;;;;;;2.63;1.80;;;13.20;99.90;;;;;;5073686;28;20566;-88
2023/05/09 04:07:59;;;;;;;2.70;1.83;;;13.30;99.90;;;;;;5073555;28;20458;-87
2023/05/09 04:10:25;;;;;;;2.10;1.63;;;13.30;99.90;;;;;;5073956;28;20441;-87
2023/05/09 04:12:52;;;;;;;3.17;1.53;;;13.20;99.90;;;;;;5073427;28;20488;-87
2023/05/09 04:15:19;;;;;;;2.23;1.60;;;13.30;99.90;;;;;;5073354;28;20441;-87
2023/05/09 04:17:46;;;;;;;3.13;1.80;;;13.20;99.90;;;;;;5074968;28;20441;-88
2023/05/09 04:20:14;;;;;;;4.30;1.90;;;13.20;99.90;;;;;;5075443;28;20446;-89
2023/05/09 04:22:41;;;;;;;2.43;2.00;;;13.20;99.90;;;;;;5075962;28;20499;-89
2023/05/09 04:25:11;;;;;;;3.40;1.60;;;13.20;99.90;;;;;;5075327;28;20457;-89
2023/05/09 04:27:38;;;;;;;4.07;1.73;;;13.30;99.90;;;;;;5075822;28;20498;-89
2023/05/09 04:30:06;;;;;;;5.10;2.03;;;13.30;99.90;;;;;;5076151;28;20928;-89
2023/05/09 04:32:34;;;;;;;4.00;1.80;;;13.30;99.90;;;;;;5076375;28;20465;-89
2023/05/09 04:35:02;;;;;;;4.43;2.10;;;13.30;99.90;;;;;;5075951;28;20489;-89
2023/05/09 04:37:31;;;;;;;1.30;1.10;;;13.30;99.90;;;;;;5074571;28;20468;-89
2023/05/09 04:39:58;;;;;;;3.90;2.17;;;13.40;99.90;;;;;;5073547;28;20499;-89
2023/05/09 04:42:25;;;;;;;3.67;1.60;;;13.30;99.90;;;;;;5073604;28;20480;-88
2023/05/09 04:44:52;;;;;;;3.17;1.90;;;13.40;99.90;;;;;;5074893;28;20452;-89
2023/05/09 04:47:18;;;;;;;3.20;1.63;;;13.40;99.90;;;;;;5073485;28;20445;-89
2023/05/09 04:49:45;;;;;;;5.20;2.30;;;13.50;99.90;;;;;;5073684;28;20453;-89
2023/05/09 04:52:12;;;;;;;2.27;2.00;;;13.50;99.90;;;;;;5073623;28;20473;-88
2023/05/09 04:54:40;;;;;;;6.80;2.10;;;13.50;99.90;;;;;;5073488;28;20522;-89
2023/05/09 04:57:07;;;;;;;1.73;0.80;;;13.60;99.90;;;;;;5073358;28;20452;-88
2023/05/09 04:59:34;;;;;;;3.77;1.90;;;13.70;99.90;;;;;;5073408;28;20539;-88
2023/05/09 05:02:01;;;;;;;2.27;1.73;;;13.70;99.90;;;;;;5073064;28;20505;-88
2023/05/09 05:04:28;;;;;;;1.53;1.30;;;13.60;99.90;;;;;;5073177;28;20443;-88
2023/05/09 05:06:55;;;;;;;2.83;1.50;;;13.70;99.90;;;;;;5073466;28;20456;-88
2023/05/09 05:09:21;;;;;;;4.17;1.90;;;13.60;99.90;;;;;;5073431;28;20929;-89
2023/05/09 05:11:49;;;;;;;2.67;1.80;;;13.70;99.90;;;;;;5073679;28;20448;-89
2023/05/09 05:14:16;;;;;;;4.10;2.00;;;13.70;99.90;;;;;;5074441;28;20487;-89
2023/05/09 05:16:43;;;;;;;4.20;1.40;;;13.70;99.90;;;;;;5077012;28;20449;-88
2023/05/09 05:19:09;;;;;;;3.13;1.27;;;13.70;99.90;;;;;;5076903;28;20451;-89
2023/05/09 05:21:36;;;;;;;3.77;1.40;;;13.70;99.90;;;;;;5076960;28;20453;-89
2023/05/09 05:24:03;;;;;;;5.00;2.43;;;13.80;99.90;;;;;;5076959;28;20803;-89
2023/05/09 05:26:30;;;;;;;2.73;1.47;;;13.80;99.90;;;;;;5077522;28;20948;-89
2023/05/09 05:28:58;;;;;;;3.43;1.60;;;13.90;99.90;;;;;;5076646;28;20521;-88
2023/05/09 05:31:25;;;;;;;4.03;2.30;;;13.80;99.90;;;;;;5076874;28;20448;-89
2023/05/09 05:33:51;;;;;;;2.50;1.53;;;13.90;99.90;;;;;;5076233;28;20477;-88
2023/05/09 05:36:18;;;;;;;2.33;1.70;;;13.90;99.90;;;;;;5076701;28;20452;-89
2023/05/09 05:38:45;;;;;;;2.63;1.87;;;14.00;99.90;;;;;;5076827;28;20961;-89
2023/05/09 05:41:11;;;;;;;2.40;1.77;;;14.00;99.90;;;;;;5076770;28;20449;-88
2023/05/09 05:43:38;;;;;;;4.10;2.43;;;14.00;99.90;;;;;;5076480;28;20462;-89
2023/05/09 05:46:06;;;;;;;4.10;2.17;;;14.10;99.90;;;;;;5076428;28;20450;-89
2023/05/09 05:48:33;;;;;;;4.13;2.33;;;14.10;99.90;;;;;;5076381;28;20804;-89
2023/05/09 05:51:00;;;;;;;4.67;2.37;;;14.10;99.90;;;;;;5076348;28;20449;-89
2023/05/09 05:53:26;;;;;;;3.60;1.47;;;14.20;99.90;;;;;;5075986;28;20992;-89
2023/05/09 05:55:53;;;;;;;2.60;1.63;;;14.40;99.90;;;;;;5076202;28;20450;-89
2023/05/09 05:58:20;;;;;;;2.67;1.90;;;14.50;99.90;;;;;;5075974;28;20437;-89
2023/05/09 06:00:46;;;;;;;3.13;1.37;;;14.60;99.90;;;;;;5076518;28;20441;-89
2023/05/09 06:03:15;;;;;;;4.47;2.07;;;14.70;99.90;;;;;;5075857;28;20482;-89
2023/05/09 06:05:43;;;;;;;3.67;2.10;;;14.60;99.90;;;;;;5076146;28;20895;-89
2023/05/09 06:08:10;;;;;;;2.53;1.97;;;14.60;99.90;;;;;;5076063;28;20496;-89
2023/05/09 06:10:36;;;;;;;3.37;2.10;;;14.60;99.90;;;;;;5075907;28;20449;-88
2023/05/09 06:13:03;;;;;;;5.97;2.60;;;14.50;99.90;;;;;;5075769;28;20469;-88
2023/05/09 06:15:30;;;;;;;3.90;2.40;;;14.60;99.90;;;;;;5076280;28;20846;-89
2023/05/09 06:17:56;;;;;;;3.53;2.50;;;14.50;99.90;;;;;;5076172;28;20438;-89
2023/05/09 06:20:25;;;;;;;5.00;2.47;;;14.50;99.90;;;;;;5075450;28;20910;-89
2023/05/09 06:22:52;;;;;;;4.07;2.37;;;14.50;99.90;;;;;;5075821;28;20466;-89
2023/05/09 06:25:18;;;;;;;3.07;2.30;;;14.60;99.90;;;;;;5075512;28;20437;-89
2023/05/09 06:27:45;;;;;;;4.27;2.00;;;14.60;99.90;;;;;;5075442;28;20440;-89
2023/05/09 06:30:13;;;;;;;2.13;1.67;;;14.70;99.90;;;;;;5075329;28;20436;-89
2023/05/09 06:32:40;;;;;;;2.90;2.00;;;14.70;99.90;;;;;;5075024;28;20473;-89
2023/05/09 06:35:07;;;;;;;2.00;1.47;;;14.80;99.90;;;;;;5075311;28;20485;-89
2023/05/09 06:37:35;;;;;;;2.77;1.23;;;14.90;99.90;;;;;;5075684;28;20450;-89
2023/05/09 06:40:02;;;;;;;3.40;2.00;;;15.10;99.90;;;;;;5075402;28;20472;-89
2023/05/09 06:42:31;;;;;;;2.40;1.43;;;15.20;99.90;;;;;;5075234;28;20472;-89
2023/05/09 06:44:58;;;;;;;3.90;2.23;;;15.40;99.90;;;;;;5075039;28;20456;-89
2023/05/09 06:47:24;;;;;;;1.90;1.50;;;15.60;99.90;;;;;;5075459;28;20458;-90
2023/05/09 06:49:51;;;;;;;4.27;1.67;;;15.70;99.90;;;;;;5074988;28;20438;-89
2023/05/09 06:52:20;;;;;;;2.83;1.80;;;15.80;99.90;;;;;;5075103;28;20469;-89
2023/05/09 06:54:48;;;;;;;3.00;1.60;;;15.80;99.90;;;;;;5075193;28;20934;-89
2023/05/09 06:57:15;;;;;;;2.90;2.17;;;15.90;99.90;;;;;;5075154;28;20426;-91
2023/05/09 06:59:43;;;;;;;3.80;2.43;;;16.00;99.90;;;;;;5075472;28;20458;-90
2023/05/09 07:02:10;;;;;;;2.50;1.90;;;16.10;99.90;;;;;;5074776;28;20492;-90
2023/05/09 07:04:37;;;;;;;3.63;2.13;;;16.30;99.90;;;;;;5075085;28;20453;-90
2023/05/09 07:07:03;;;;;;;2.70;1.40;;;16.40;99.90;;;;;;5075080;28;20460;-90
2023/05/09 07:09:30;;;;;;;3.37;1.60;;;16.50;99.90;;;;;;5074842;28;20450;-89
2023/05/09 07:12:00;;;;;;;3.77;2.63;;;16.60;99.90;;;;;;5074654;28;20473;-89
2023/05/09 07:14:27;;;;;;;3.87;2.23;;;16.80;99.90;;;;;;5074739;28;20488;-89
2023/05/09 07:16:53;;;;;;;4.80;2.90;;;16.90;99.90;;;;;;5074888;28;20926;-90
2023/05/09 07:19:20;;;;;;;3.90;2.73;;;16.90;99.90;;;;;;5074793;28;20450;-90
2023/05/09 07:21:48;;;;;;;3.77;2.70;;;16.80;99.90;;;;;;5074443;28;20450;-90
2023/05/09 07:24:15;;;;;;;6.37;2.87;;;16.80;99.90;;;;;;5074686;28;20453;-90
2023/05/09 07:26:41;;;;;;;2.60;2.40;;;16.60;99.90;;;;;;5074684;28;20444;-89
2023/05/09 07:29:10;;;;;;;4.30;2.27;;;16.50;99.90;;;;;;5074644;28;20835;-90
2023/05/09 07:31:36;;;;;;;2.70;2.30;;;16.50;99.90;;;;;;5074712;28;20448;-90
2023/05/09 07:34:03;;;;;;;4.53;2.60;;;16.50;99.90;;;;;;5074163;28;20945;-89
2023/05/09 07:36:30;;;;;;;3.00;2.23;;;16.40;99.90;;;;;;5073872;28;20430;-89
2023/05/09 07:38:57;;;;;;;4.20;2.20;;;16.40;99.90;;;;;;5074379;28;20452;-89
2023/05/09 07:41:23;;;;;;;2.47;2.27;;;16.50;99.90;;;;;;5074444;28;20459;-89
2023/05/09 07:43:50;;;;;;;2.30;2.07;;;16.50;99.90;;;;;;5074323;28;20465;-88
2023/05/09 07:46:18;;;;;;;3.37;1.93;;;16.40;99.90;;;;;;5074257;28;20461;-88
2023/05/09 07:48:45;;;;;;;2.83;2.50;;;16.30;99.90;;;;;;5074301;28;20438;-89
2023/05/09 07:51:11;;;;;;;3.97;2.40;;;16.30;99.90;;;;;;5074298;28;20453;-89
2023/05/09 07:53:38;;;;;;;2.37;1.63;;;16.40;99.90;;;;;;5073883;28;20461;-88
2023/05/09 07:56:06;;;;;;;3.33;2.10;;;16.40;99.90;;;;;;5073998;28;20485;-89
2023/05/09 07:58:33;;;;;;;3.77;2.90;;;16.50;99.90;;;;;;5074232;28;20875;-88
2023/05/09 08:01:00;;;;;;;2.63;2.20;;;16.70;99.90;;;;;;5073778;28;20944;-88
2023/05/09 08:03:28;;;;;;;6.27;3.07;;;16.80;99.90;;;;;;5073796;28;20472;-89
2023/05/09 08:05:55;;;;;;;6.07;2.60;;;16.90;99.90;;;;;;5074135;28;20449;-88
2023/05/09 08:08:22;;;;;;;4.37;3.33;;;17.10;99.90;;;;;;5073936;28;20453;-88
2023/05/09 08:10:49;;;;;;;2.63;1.73;;;17.60;99.90;;;;;;5074051;28;20441;-89
2023/05/09 08:13:17;;;;;;;4.20;2.40;;;17.90;99.90;;;;;;5073883;28;20923;-89
2023/05/09 08:15:44;;;;;;;5.30;3.10;;;18.40;99.90;;;;;;5073934;28;20485;-89
2023/05/09 08:18:11;;;;;;;2.57;1.83;;;19.50;99.90;;;;;;5073971;28;20449;-89
2023/05/09 08:20:39;;;;;;;2.53;2.30;;;20.40;99.90;;;;;;5073935;28;20446;-90
2023/05/09 08:23:06;;;;;;;3.10;1.80;;;21.00;99.90;;;;;;5073645;28;20995;-90
2023/05/09 08:25:33;;;;;;;3.27;2.50;;;20.90;99.90;;;;;;5073903;28;20451;-90
2023/05/09 08:27:59;;;;;;;2.77;2.30;;;20.60;99.90;;;;;;5073952;28;20449;-90
2023/05/09 08:30:28;;;;;;;3.00;2.50;;;20.50;99.90;;;;;;5073976;28;20460;-89
2023/05/09 08:32:54;;;;;;;1.87;1.67;;;20.40;99.90;;;;;;5074011;28;20469;-90
2023/05/09 08:35:21;;;;;;;3.70;1.90;;;20.30;99.90;;;;;;5073891;28;20481;-91
2023/05/09 08:37:49;;;;;;;2.73;2.00;;;20.30;99.90;;;;;;5073882;28;20449;-89
2023/05/09 08:40:17;;;;;;;2.57;2.20;;;20.30;99.90;;;;;;5073924;28;20510;-90
2023/05/09 08:42:44;;;;;;;1.93;1.73;;;20.20;99.90;;;;;;5073574;28;20539;-90
2023/05/09 08:45:14;;;;;;;2.60;1.83;;;20.00;99.90;;;;;;5073908;28;20437;-89
2023/05/09 08:47:41;;;;;;;2.30;2.00;;;19.80;99.90;;;;;;5073729;28;20441;-90
2023/05/09 08:50:10;;;;;;;2.50;2.10;;;19.80;99.90;;;;;;5076497;28;20437;-89
2023/05/09 08:52:37;;;;;;;2.30;1.80;;;19.80;99.90;;;;;;5077308;28;20461;-89
2023/05/09 08:55:06;;;;;;;1.97;1.87;;;19.80;99.90;;;;;;5077220;28;20480;-89
2023/05/09 08:57:34;;;;;;;2.90;1.90;;;19.70;99.90;;;;;;5077157;28;20913;-88
2023/05/09 09:00:01;;;;;;;2.07;1.97;;;19.60;99.90;;;;;;5077609;28;20461;-89
2023/05/09 09:02:28;;;;;;;3.90;1.80;;;19.50;99.90;;;;;;5077177;28;20480;-90
2023/05/09 09:04:55;;;;;;;1.60;1.43;;;19.50;99.90;;;;;;5077301;28;20441;-90
2023/05/09 09:07:23;;;;;;;2.17;1.73;;;19.40;99.90;;;;;;5077129;28;20444;-89
2023/05/09 09:09:51;;;;;;;3.07;1.80;;;19.40;99.90;;;;;;5077087;28;20453;-89
2023/05/09 09:12:22;;;;;;;1.40;1.30;;;19.30;99.90;;;;;;5077107;28;20855;-88
2023/05/09 09:14:53;;;;;;;2.83;2.33;;;19.20;99.90;;;;;;5077077;28;20465;-89
2023/05/09 09:17:23;;;;;;;2.00;1.90;;;19.10;99.90;;;;;;5076863;28;20447;-88
2023/05/09 09:19:53;;;;;;;2.80;1.60;;;18.90;99.90;;;;;;5076940;28;20441;-88
2023/05/09 09:22:21;;;;;;;2.43;2.23;;;18.80;99.90;;;;;;5076590;28;20449;-89
2023/05/09 09:24:47;;;;;;;1.63;1.37;;;18.70;99.90;;;;;;5076752;28;20450;-89
2023/05/09 09:27:14;;;;;;;3.13;2.23;;;18.50;99.90;;;;;;5076208;28;20434;-86
2023/05/09 09:29:42;;;;;;;2.50;2.30;;;18.50;99.90;;;;;;5076042;28;20449;-86
2023/05/09 09:32:09;;;;;;;2.63;2.33;;;18.60;99.90;;;;;;5075789;28;20477;-86
2023/05/09 09:34:36;;;;;;;2.10;1.90;;;18.70;99.90;;;;;;5075975;28;20445;-87
2023/05/09 09:37:02;;;;;;;3.33;1.87;;;18.90;99.90;;;;;;5076039;28;20452;-87
2023/05/09 09:39:29;;;;;;;2.20;1.80;;;19.00;99.90;;;;;;5076730;28;20453;-87
2023/05/09 09:41:56;;;;;;;2.80;2.00;;;19.00;99.90;;;;;;5075501;28;20988;-87
2023/05/09 09:44:23;;;;;;;2.73;1.90;;;19.00;99.90;;;;;;5075879;28;20445;-85
2023/05/09 09:46:53;;;;;;;2.60;2.13;;;19.20;99.90;;;;;;5075773;28;20433;-86
2023/05/09 09:49:22;;;;;;;1.80;1.60;;;19.40;99.90;;;;;;5075903;28;20491;-87
2023/05/09 09:51:53;;;;;;;1.53;1.43;;;19.70;99.90;;;;;;5075499;28;20429;-88
2023/05/09 09:54:21;;;;;;;3.10;1.57;;;19.80;99.90;;;;;;5075628;28;20452;-85
2023/05/09 09:56:49;;;;;;;2.70;1.57;;;19.70;99.90;;;;;;5075297;28;21004;-86
2023/05/09 09:59:16;;;;;;;2.23;1.63;;;19.60;99.90;;;;;;5075472;28;20453;-87
2023/05/09 10:01:59;;;;;;;3.20;2.00;;;19.70;99.90;;;;;;5074884;28;20845;-87
2023/05/09 10:04:28;;;;;;;3.80;2.17;;;19.70;99.90;;;;;;5075380;28;20932;-88
2023/05/09 10:06:55;;;;;;;4.87;2.30;;;19.60;99.90;;;;;;5075233;28;20964;-88
2023/05/09 10:09:23;;;;;;;3.27;2.80;;;19.70;99.90;;;;;;5075739;28;20468;-88
2023/05/09 10:11:52;;;;;;;3.07;2.33;;;19.70;99.90;;;;;;5075348;28;20499;-87
2023/05/09 10:14:20;;;;;;;4.43;2.33;;;19.80;99.90;;;;;;5075364;28;20457;-89
2023/05/09 10:16:48;;;;;;;5.10;2.27;;;19.90;99.90;;;;;;5075491;28;20542;-89
2023/05/09 10:19:18;;;;;;;3.93;2.20;;;19.80;99.90;;;;;;5074878;28;20941;-87
2023/05/09 10:21:50;;;;;;;2.60;2.20;;;19.80;99.90;;;;;;5075069;28;20446;-88
2023/05/09 10:24:22;;;;;;;3.37;3.07;;;19.80;99.90;;;;;;5075368;28;20434;-87
2023/05/09 10:26:52;;;;;;;3.93;2.60;;;19.70;99.90;;;;;;5074773;28;20495;-87
2023/05/09 10:29:27;;;;;;;3.53;2.17;;;19.80;99.90;;;;;;5075176;28;20848;-87
2023/05/09 10:31:58;;;;;;;4.83;2.80;;;20.00;99.90;;;;;;5075437;28;20489;-87
2023/05/09 10:34:31;;;;;;;2.83;2.33;;;20.10;99.90;;;;;;5075250;28;20438;-88
2023/05/09 10:36:59;;;;;;;4.77;2.20;;;20.40;99.90;;;;;;5074988;28;20472;-88
2023/05/09 10:39:27;;;;;;;3.00;2.17;;;20.30;99.90;;;;;;5074978;28;20970;-89
2023/05/09 10:41:54;;;;;;;3.00;2.63;;;20.30;99.90;;;;;;5074798;28;21008;-88
2023/05/09 10:44:23;;;;;;;1.93;1.70;;;20.30;99.90;;;;;;5074873;28;20848;-89
2023/05/09 10:46:51;;;;;;;4.70;1.70;;;20.40;99.90;;;;;;5074990;28;20437;-89
2023/05/09 10:49:18;;;;;;;1.93;1.60;;;20.50;99.90;;;;;;5074898;28;20456;-89
2023/05/09 10:51:46;;;;;;;1.93;1.67;;;20.50;99.90;;;;;;5074830;28;20457;-89
2023/05/09 10:54:15;;;;;;;4.77;1.47;;;20.50;99.90;;;;;;5074879;28;20441;-89
2023/05/09 10:56:42;;;;;;;2.40;1.70;;;20.60;99.90;;;;;;5074781;28;21012;-88
2023/05/09 10:59:33;;;;;;;1.30;1.20;;;20.50;99.90;;;;;;5074580;28;20452;-89
2023/05/09 11:02:02;;;;;;;1.67;1.20;;;20.40;99.90;;;;;;5074340;28;20508;-89
2023/05/09 11:04:29;;;;;;;1.77;1.00;;;20.40;99.90;;;;;;5074765;28;20453;-88
2023/05/09 11:07:00;;;;;;;1.60;1.10;;;20.40;99.90;;;;;;5074981;28;20522;-88
2023/05/09 11:09:32;;;;;;;0.90;0.90;;;20.30;99.90;;;;;;5074606;28;20426;-87
2023/05/09 11:12:08;;;;;;;1.00;1.00;;;20.60;99.90;;;;;;5073527;28;20469;-87
2023/05/09 11:14:40;;;;;;;1.47;1.17;;;20.80;99.90;;;;;;5074332;28;20433;-89
2023/05/09 11:17:08;;;;;;;1.67;1.57;;;20.90;99.90;;;;;;5073939;28;20542;-88
2023/05/09 11:19:53;;;;;;;2.30;1.23;;;20.90;99.90;;;;;;5074298;28;20445;-88
2023/05/09 11:22:23;;;;;;;1.10;1.00;;;20.80;99.90;;;;;;5063686;28;20484;-87
2023/05/09 11:24:52;;;;;;;1.43;1.33;;;20.90;99.90;;;;;;5075272;28;20463;-88
2023/05/09 11:27:20;;;;;;;1.90;1.27;;;20.90;99.90;;;;;;5074482;28;20445;-88
2023/05/09 11:29:50;;;;;;;2.97;1.40;;;20.80;99.90;;;;;;5074202;28;20828;-88
2023/05/09 11:32:18;;;;;;;1.57;1.10;;;20.70;99.90;;;;;;5074317;28;20469;-88
2023/05/09 11:34:45;;;;;;;2.03;1.90;;;20.70;99.90;;;;;;5074408;28;20445;-88
2023/05/09 11:37:13;;;;;;;1.03;0.90;;;20.60;99.90;;;;;;5073480;28;21007;-88
2023/05/09 11:39:58;;;;;;;1.40;0.90;;;20.60;99.90;;;;;;5074079;28;20449;-87
2023/05/09 11:42:27;;;;;;;2.43;1.50;;;20.50;99.90;;;;;;5074360;28;20476;-87
2023/05/09 11:44:54;;;;;;;1.83;1.57;;;20.40;99.90;;;;;;5073955;28;20449;-87
2023/05/09 11:47:21;;;;;;;1.47;1.37;;;20.40;99.90;;;;;;5074242;28;20437;-88
2023/05/09 11:49:49;;;;;;;2.07;1.70;;;20.40;99.90;;;;;;5073740;28;20941;-88
2023/05/09 11:52:16;;;;;;;1.97;1.23;;;20.30;99.90;;;;;;5073769;28;20519;-86
2023/05/09 11:54:42;;;;;;;1.60;1.30;;;20.30;99.90;;;;;;5073770;28;20449;-88
2023/05/09 11:57:16;;;;;;;1.33;1.17;;;20.30;99.90;;;;;;5073478;28;20495;-87
2023/05/09 11:59:43;;;;;;;1.50;1.40;;;20.40;99.90;;;;;;5073598;28;20786;-88
2023/05/09 12:02:10;;;;;;;2.30;1.30;;;20.50;99.90;;;;;;5073589;28;20845;-88
2023/05/09 12:04:37;;;;;;;1.73;1.63;;;20.60;99.90;;;;;;5073523;28;20537;-87
2023/05/09 12:07:04;;;;;;;1.13;0.97;;;20.60;99.90;;;;;;5073806;28;20476;-87
2023/05/09 12:09:32;;;;;;;1.07;1.00;;;20.70;99.90;;;;;;5074678;28;20437;-87
2023/05/09 12:11:59;;;;;;;1.10;0.90;;;20.70;99.90;;;;;;5073801;28;20556;-88
2023/05/09 12:14:29;;;;;;;1.10;0.90;;;20.80;99.90;;;;;;5073657;28;21003;-87
2023/05/09 12:16:56;;;;;;;1.23;1.13;;;20.70;99.90;;;;;;5073481;28;20481;-87
2023/05/09 12:19:24;;;;;;;1.27;1.07;;;20.70;99.90;;;;;;5073258;28;20436;-88
2023/05/09 12:21:56;;;;;;;1.50;1.30;;;20.60;99.90;;;;;;5073488;28;20445;-87
2023/05/09 12:24:25;;;;;;;1.47;1.37;;;20.50;99.90;;;;;;5076543;28;20471;-86
2023/05/09 12:26:52;;;;;;;1.97;1.60;;;20.50;99.90;;;;;;5077640;28;20467;-88
2023/05/09 12:29:19;;;;;;;1.47;1.17;;;20.50;99.90;;;;;;5077962;28;20444;-82
2023/05/09 12:31:48;;;;;;;0.90;0.90;;;20.40;99.90;;;;;;5077815;28;20455;-87
2023/05/09 12:34:16;;;;;;;1.40;1.30;;;20.30;99.90;;;;;;5077243;28;20445;-86
2023/05/09 12:36:49;;;;;;;1.60;1.07;;;20.20;99.90;;;;;;5077515;28;20488;-87
2023/05/09 12:39:20;;;;;;;1.63;1.53;;;20.10;99.90;;;;;;5077288;28;20437;-88
2023/05/09 12:41:48;;;;;;;1.03;0.83;;;20.10;99.90;;;;;;5077291;28;20465;-88
2023/05/09 12:44:19;;;;;;;3.73;1.23;;;20.00;99.90;;;;;;5077303;28;20877;-87
2023/05/09 12:46:59;;;;;;;1.50;1.00;;;19.90;99.90;;;;;;5076879;28;20967;-87
2023/05/09 12:49:26;;;;;;;2.73;1.07;;;19.90;99.90;;;;;;5077222;28;20430;-87